Terminal Aerodrome Forecast
Issued by NWS Shreveport, LA

Home | Current Version | Previous Version | Text Only | Print | Product List | Glossary On
Versions: 1 2 3 4 5 6 7 8 9 10 11 12 13 14 15 16 17 18 19 20 21 22 23 24
000
FTUS44 KSHV 151720
TAFGGG
TAF
KGGG 151720Z 1518/1618 19017G25KT P6SM SCT030 BKN050
     FM160100 17014KT P6SM SCT040 SCT060
     FM161000 19010KT P6SM VCTS OVC015CB
     FM161300 20015G21KT P6SM VCTS OVC015CB=

USA.gov is the U.S. government's official web portal to all federal, state and local government web resources and services.